createdAt,value
2018-03-14T00:01:17.964Z,9.50
2018-03-14T00:03:45.856Z,10.07
2018-03-14T00:06:14.513Z,9.80
2018-03-14T00:08:42.173Z,10.50
2018-03-14T00:11:09.733Z,10.50
2018-03-14T00:13:37.261Z,9.37
2018-03-14T00:16:04.807Z,9.63
2018-03-14T00:18:32.337Z,10.07
2018-03-14T00:21:00.655Z,9.60
2018-03-14T00:23:29.254Z,9.70
2018-03-14T00:25:56.916Z,9.53
2018-03-14T00:28:24.428Z,9.20
2018-03-14T00:30:52.388Z,8.67
2018-03-14T00:33:19.916Z,9.33
2018-03-14T00:35:48.360Z,11.43
2018-03-14T00:38:16.044Z,9.70
2018-03-14T00:40:43.593Z,10.47
2018-03-14T00:43:11.441Z,10.03
2018-03-14T00:45:39.743Z,11.67
2018-03-14T00:48:07.277Z,10.67
2018-03-14T00:50:35.698Z,11.40
2018-03-14T00:53:04.013Z,10.27
2018-03-14T00:55:32.305Z,11.53
2018-03-14T00:57:59.850Z,11.13
2018-03-14T01:00:27.378Z,10.50
2018-03-14T01:02:54.936Z,11.13
2018-03-14T01:05:22.462Z,10.63
2018-03-14T01:07:50.781Z,12.97
2018-03-14T01:10:18.316Z,12.63
2018-03-14T01:12:45.872Z,12.63
2018-03-14T01:15:13.685Z,11.30
2018-03-14T01:17:41.559Z,11.40
2018-03-14T01:20:09.096Z,12.47
2018-03-14T01:22:36.656Z,13.10
2018-03-14T01:25:04.214Z,13.60
2018-03-14T01:27:32.077Z,12.20
2018-03-14T01:29:59.600Z,14.17
2018-03-14T01:32:27.176Z,12.27
2018-03-14T01:34:54.700Z,12.47
2018-03-14T01:37:22.220Z,13.73
2018-03-14T01:39:49.793Z,11.33
2018-03-14T01:42:18.084Z,12.40
2018-03-14T01:44:45.641Z,11.87
2018-03-14T01:47:13.464Z,11.97
2018-03-14T01:49:41.017Z,11.70
2018-03-14T01:52:08.548Z,12.27
2018-03-14T01:54:36.428Z,11.13
2018-03-14T01:57:03.949Z,11.40
2018-03-14T01:59:31.517Z,11.70
2018-03-14T02:01:59.308Z,11.47
2018-03-14T02:04:26.860Z,11.17
2018-03-14T02:06:54.397Z,12.47
2018-03-14T02:09:21.957Z,10.60
2018-03-14T02:11:49.505Z,11.13
2018-03-14T02:14:17.048Z,10.90
2018-03-14T02:16:44.849Z,9.13
2018-03-14T02:19:13.161Z,10.30
2018-03-14T02:21:41.457Z,9.47
2018-03-14T02:24:09.005Z,9.17
2018-03-14T02:26:36.537Z,9.40
2018-03-14T02:29:04.068Z,9.90
2018-03-14T02:31:31.620Z,11.00
2018-03-14T02:33:59.150Z,10.63
2018-03-14T02:36:38.364Z,9.77
2018-03-14T02:39:05.896Z,8.90
2018-03-14T02:41:33.445Z,9.60
2018-03-14T02:44:01.754Z,10.23
2018-03-14T02:46:29.296Z,10.00
2018-03-14T02:48:56.832Z,9.87
2018-03-14T02:51:24.425Z,9.50
2018-03-14T02:53:52.945Z,10.40
2018-03-14T02:56:20.509Z,8.90
2018-03-14T02:58:48.785Z,10.40
2018-03-14T03:01:16.322Z,9.43
2018-03-14T03:03:43.840Z,10.10
2018-03-14T03:06:12.156Z,10.40
2018-03-14T03:08:39.665Z,10.10
2018-03-14T03:11:07.942Z,10.00
2018-03-14T03:13:36.241Z,10.20
2018-03-14T03:16:03.750Z,9.67
2018-03-14T03:18:31.290Z,11.43
2018-03-14T03:20:58.818Z,9.93
2018-03-14T03:23:26.360Z,9.63
2018-03-14T03:25:53.872Z,9.43
2018-03-14T03:28:21.713Z,9.50
2018-03-14T03:30:49.989Z,10.17
2018-03-14T03:33:17.560Z,9.63
2018-03-14T03:35:45.068Z,10.80
2018-03-14T03:38:12.872Z,10.50
2018-03-14T03:40:40.720Z,10.70
2018-03-14T03:43:08.484Z,10.60
2018-03-14T03:45:36.000Z,10.40
2018-03-14T03:48:04.298Z,11.30
2018-03-14T03:50:32.601Z,10.53
2018-03-14T03:53:00.136Z,10.50
2018-03-14T03:55:27.652Z,10.33
2018-03-14T03:57:55.968Z,10.03
2018-03-14T04:00:23.477Z,9.83
2018-03-14T04:02:51.752Z,10.60
2018-03-14T04:05:20.054Z,10.10
2018-03-14T04:07:47.568Z,11.13
2018-03-14T04:10:15.122Z,11.90
2018-03-14T04:12:42.629Z,12.20
2018-03-14T04:15:10.165Z,10.10
2018-03-14T04:17:37.673Z,9.53
2018-03-14T04:20:05.225Z,10.90
2018-03-14T04:22:32.738Z,10.90
2018-03-14T04:25:00.273Z,10.83
2018-03-14T04:27:28.556Z,9.73
2018-03-14T04:29:56.873Z,10.10
2018-03-14T04:32:24.386Z,10.93
2018-03-14T04:34:52.692Z,10.50
2018-03-14T04:37:20.464Z,10.77
2018-03-14T04:39:48.080Z,12.50
2018-03-14T04:42:16.605Z,10.57
2018-03-14T04:44:44.116Z,10.00
2018-03-14T04:47:12.412Z,9.10
2018-03-14T04:49:39.932Z,10.70
2018-03-14T04:52:07.467Z,11.10
2018-03-14T04:54:34.997Z,10.60
2018-03-14T04:57:02.533Z,12.00
2018-03-14T04:59:30.044Z,10.67
2018-03-14T05:01:57.576Z,10.43
2018-03-14T05:04:25.111Z,11.13
2018-03-14T05:06:52.650Z,10.97
2018-03-14T05:09:20.160Z,10.50
2018-03-14T05:11:47.696Z,10.00
2018-03-14T05:14:15.203Z,9.40
2018-03-14T05:16:42.748Z,9.93
2018-03-14T05:19:11.041Z,7.70
2018-03-14T05:21:38.580Z,9.40
2018-03-14T05:24:06.860Z,9.20
2018-03-14T05:26:35.157Z,12.03
2018-03-14T05:29:02.944Z,11.70
2018-03-14T05:31:30.493Z,11.00
2018-03-14T05:33:58.006Z,11.10
2018-03-14T05:36:26.304Z,8.97
2018-03-14T05:38:54.093Z,9.80
2018-03-14T05:41:21.600Z,9.37
2018-03-14T05:43:49.900Z,10.57
2018-03-14T05:46:17.456Z,10.73
2018-03-14T05:48:45.240Z,10.50
2018-03-14T05:51:12.751Z,10.87
2018-03-14T05:53:41.063Z,9.90
2018-03-14T05:56:08.574Z,9.27
2018-03-14T05:58:36.877Z,10.67
2018-03-14T06:01:04.665Z,9.53
2018-03-14T06:03:32.197Z,10.23
2018-03-14T06:05:59.712Z,10.20
2018-03-14T06:08:27.248Z,10.60
2018-03-14T06:10:54.759Z,10.60
2018-03-14T06:13:22.299Z,9.07
2018-03-14T06:15:50.588Z,9.37
2018-03-14T06:18:18.391Z,10.63
2018-03-14T06:20:45.929Z,10.30
2018-03-14T06:23:13.462Z,10.37
2018-03-14T06:25:40.969Z,8.63
2018-03-14T06:28:08.813Z,8.97
2018-03-14T06:30:36.362Z,9.73
2018-03-14T06:33:03.888Z,8.50
2018-03-14T06:35:32.185Z,9.93
2018-03-14T06:37:59.919Z,9.90
2018-03-14T06:40:28.542Z,9.50
2018-03-14T06:42:56.072Z,9.37
2018-03-14T06:45:23.604Z,9.10
2018-03-14T06:47:51.900Z,9.70
2018-03-14T06:50:19.687Z,11.20
2018-03-14T06:52:47.216Z,10.40
2018-03-14T06:55:14.748Z,8.93
2018-03-14T06:57:43.042Z,10.07
2018-03-14T07:00:22.343Z,8.93
2018-03-14T07:02:55.776Z,10.60
2018-03-14T07:05:35.305Z,11.00
2018-03-14T07:08:02.817Z,9.67
2018-03-14T07:10:30.357Z,11.57
2018-03-14T07:12:57.876Z,10.67
2018-03-14T07:15:25.434Z,9.40
2018-03-14T07:17:52.968Z,9.20
2018-03-14T07:20:21.500Z,9.77
2018-03-14T07:22:49.008Z,10.80
2018-03-14T07:25:17.319Z,12.87
2018-03-14T07:27:45.276Z,11.27
2018-03-14T07:30:12.860Z,10.57
2018-03-14T07:32:41.522Z,10.37
2018-03-14T07:35:09.241Z,9.90
2018-03-14T07:37:37.364Z,8.27
2018-03-14T07:40:05.052Z,8.90
2018-03-14T07:42:32.606Z,8.43
2018-03-14T07:45:00.112Z,9.33
2018-03-14T07:47:27.658Z,9.30
2018-03-14T07:49:55.933Z,9.53
2018-03-14T07:52:23.735Z,9.97
2018-03-14T07:54:51.244Z,9.50
2018-03-14T07:57:19.540Z,9.80
2018-03-14T07:59:47.048Z,9.63
2018-03-14T08:02:15.373Z,8.93
2018-03-14T08:04:42.905Z,8.73
2018-03-14T08:07:11.212Z,9.57
2018-03-14T08:09:38.724Z,8.83
2018-03-14T08:12:07.041Z,9.77
2018-03-14T08:14:34.569Z,8.77
2018-03-14T08:17:02.888Z,12.67
2018-03-14T08:19:30.410Z,9.73
2018-03-14T08:21:57.916Z,9.57
2018-03-14T08:24:25.546Z,10.70
2018-03-14T08:26:53.295Z,10.00
2018-03-14T08:29:21.897Z,9.23
2018-03-14T08:31:49.404Z,8.77
2018-03-14T08:34:16.946Z,8.10
2018-03-14T08:36:44.481Z,9.60
2018-03-14T08:39:12.016Z,9.07
2018-03-14T08:41:39.783Z,8.30
2018-03-14T08:44:07.311Z,9.33
2018-03-14T08:46:35.109Z,9.30
2018-03-14T08:49:02.636Z,9.17
2018-03-14T08:51:30.157Z,9.50
2018-03-14T08:53:58.453Z,8.80
2018-03-14T08:56:25.974Z,11.10
2018-03-14T08:58:54.292Z,8.90
2018-03-14T09:01:21.804Z,9.03
2018-03-14T09:03:49.329Z,10.37
2018-03-14T09:06:16.876Z,10.73
2018-03-14T09:08:44.394Z,9.50
2018-03-14T09:11:12.701Z,10.10
2018-03-14T09:13:40.216Z,11.00
2018-03-14T09:16:08.517Z,10.80
2018-03-14T09:18:36.059Z,11.57
2018-03-14T09:21:04.360Z,10.43
2018-03-14T09:23:32.136Z,16.43
2018-03-14T09:26:00.001Z,23.63
2018-03-14T09:28:27.512Z,14.43
2018-03-14T09:30:55.819Z,11.73
2018-03-14T09:33:23.349Z,11.87
2018-03-14T09:35:51.671Z,12.73
2018-03-14T09:38:19.422Z,12.00
2018-03-14T09:40:46.956Z,14.00
2018-03-14T09:43:14.506Z,15.43
2018-03-14T09:45:42.036Z,22.33
2018-03-14T09:48:09.553Z,15.10
2018-03-14T09:50:37.098Z,11.80
2018-03-14T09:53:04.632Z,13.00
2018-03-14T09:55:32.410Z,11.90
2018-03-14T09:57:59.944Z,12.17
2018-03-14T10:00:27.478Z,13.17
2018-03-14T10:02:54.985Z,13.17
2018-03-14T10:05:22.524Z,14.30
2018-03-14T10:07:50.034Z,16.40
2018-03-14T10:10:17.576Z,16.20
2018-03-14T10:12:45.108Z,13.77
2018-03-14T10:15:12.645Z,13.63
2018-03-14T10:17:40.226Z,11.33
2018-03-14T10:20:07.736Z,19.00
2018-03-14T10:22:36.052Z,13.00
2018-03-14T10:25:03.570Z,11.70
2018-03-14T10:27:31.122Z,14.90
2018-03-14T10:29:59.405Z,13.67
2018-03-14T10:32:27.704Z,12.43
2018-03-14T10:34:55.225Z,10.00
2018-03-14T10:37:23.534Z,10.63
2018-03-14T10:39:51.060Z,10.83
2018-03-14T10:42:19.693Z,10.23
2018-03-14T10:44:47.206Z,9.00
2018-03-14T10:47:15.513Z,9.73
2018-03-14T10:49:43.275Z,10.67
2018-03-14T10:52:10.808Z,8.80
2018-03-14T10:54:38.554Z,9.40
2018-03-14T10:57:06.853Z,9.90
2018-03-14T10:59:34.364Z,24.40
2018-03-14T11:02:07.593Z,11.77
2018-03-14T11:04:35.110Z,10.40
2018-03-14T11:07:02.680Z,9.27
2018-03-14T11:09:30.977Z,8.97
2018-03-14T11:11:58.509Z,9.80
2018-03-14T11:14:27.008Z,14.20
2018-03-14T11:16:54.549Z,22.27
2018-03-14T11:19:23.093Z,22.90
2018-03-14T11:21:50.641Z,11.67
2018-03-14T11:24:18.153Z,9.53
2018-03-14T11:26:45.685Z,8.80
2018-03-14T11:29:13.969Z,8.10
2018-03-14T11:31:43.877Z,7.60
2018-03-14T11:34:12.995Z,9.30
2018-03-14T11:36:41.265Z,8.87
2018-03-14T11:39:08.786Z,8.17
2018-03-14T11:41:36.921Z,8.80
2018-03-14T11:44:04.901Z,7.57
2018-03-14T11:46:32.873Z,8.63
2018-03-14T11:49:00.437Z,13.73
2018-03-14T11:51:27.973Z,9.23
2018-03-14T11:53:59.878Z,9.37
2018-03-14T11:56:28.188Z,8.93
2018-03-14T11:58:55.706Z,8.97
2018-03-14T12:01:24.124Z,9.40
2018-03-14T12:03:51.729Z,9.50
2018-03-14T12:06:20.379Z,8.77
2018-03-14T12:08:48.007Z,9.00
2018-03-14T12:11:15.541Z,7.00
2018-03-14T12:13:43.821Z,8.73
2018-03-14T12:16:12.156Z,6.97
2018-03-14T12:18:39.727Z,7.90
2018-03-14T12:21:07.497Z,7.97
2018-03-14T12:23:35.400Z,8.70
2018-03-14T12:26:03.681Z,8.50
2018-03-14T12:28:31.203Z,8.07
2018-03-14T12:30:59.506Z,7.63
2018-03-14T12:33:27.045Z,7.83
2018-03-14T12:35:54.564Z,8.23
2018-03-14T12:38:22.113Z,8.73
2018-03-14T12:40:49.634Z,7.50
2018-03-14T12:43:17.172Z,8.10
2018-03-14T12:45:44.697Z,10.40
2018-03-14T12:48:12.257Z,9.13
2018-03-14T12:50:39.774Z,8.33
2018-03-14T12:53:07.321Z,8.53
2018-03-14T12:55:34.841Z,8.70
2018-03-14T12:58:03.468Z,8.30
2018-03-14T13:00:30.975Z,8.10
2018-03-14T13:02:58.566Z,8.70
2018-03-14T13:05:26.344Z,8.47
2018-03-14T13:07:53.886Z,8.47
2018-03-14T13:10:21.402Z,10.80
2018-03-14T13:12:49.725Z,9.10
2018-03-14T13:15:17.258Z,9.03
2018-03-14T13:17:44.813Z,9.30
2018-03-14T13:20:12.341Z,9.27
2018-03-14T13:22:39.908Z,8.13
2018-03-14T13:25:08.184Z,9.00
2018-03-14T13:27:36.484Z,9.20
2018-03-14T13:30:04.035Z,8.57
2018-03-14T13:32:31.598Z,8.40
2018-03-14T13:34:59.189Z,9.47
2018-03-14T13:37:27.042Z,9.30
2018-03-14T13:39:54.573Z,8.70
2018-03-14T13:42:22.117Z,8.90
2018-03-14T13:44:50.411Z,8.73
2018-03-14T13:47:17.997Z,8.30
2018-03-14T13:49:45.533Z,10.07
2018-03-14T13:52:13.082Z,10.60
2018-03-14T13:54:40.601Z,10.17
2018-03-14T13:57:08.944Z,10.03
2018-03-14T13:59:36.500Z,10.17
2018-03-14T14:02:04.074Z,9.73
2018-03-14T14:04:31.609Z,10.50
2018-03-14T14:06:59.144Z,9.90
2018-03-14T14:09:26.677Z,11.10
2018-03-14T14:11:54.220Z,9.13
2018-03-14T14:14:22.504Z,9.13
2018-03-14T14:16:50.829Z,9.30
2018-03-14T14:19:18.396Z,10.73
2018-03-14T14:21:46.236Z,9.63
2018-03-14T14:24:13.749Z,9.47
2018-03-14T14:26:41.661Z,9.10
2018-03-14T14:29:09.233Z,9.23
2018-03-14T14:31:36.792Z,9.90
2018-03-14T14:34:04.306Z,9.17
2018-03-14T14:36:31.869Z,9.73
2018-03-14T14:38:59.379Z,9.33
2018-03-14T14:41:26.960Z,9.87
2018-03-14T14:43:54.501Z,9.30
2018-03-14T14:46:22.779Z,9.47
2018-03-14T14:48:51.093Z,10.00
2018-03-14T14:51:18.616Z,10.33
2018-03-14T14:53:46.921Z,9.50
2018-03-14T14:56:14.458Z,9.43
2018-03-14T14:58:41.990Z,9.50
2018-03-14T15:01:09.557Z,8.77
2018-03-14T15:03:37.857Z,9.63
2018-03-14T15:06:05.377Z,9.77
2018-03-14T15:08:33.682Z,9.43
2018-03-14T15:11:01.208Z,9.93
2018-03-14T15:13:29.512Z,9.03
2018-03-14T15:15:57.077Z,9.60
2018-03-14T15:18:24.617Z,8.10
2018-03-14T15:20:52.138Z,9.73
2018-03-14T15:23:19.685Z,10.47
2018-03-14T15:25:47.192Z,8.97
2018-03-14T15:28:14.734Z,14.10
2018-03-14T15:30:43.037Z,13.07
2018-03-14T15:33:10.589Z,12.63
2018-03-14T15:35:38.136Z,8.60
2018-03-14T15:38:05.690Z,9.70
2018-03-14T15:40:33.205Z,11.03
2018-03-14T15:43:00.749Z,10.03
2018-03-14T15:45:28.262Z,9.60
2018-03-14T15:47:55.804Z,9.13
2018-03-14T15:50:24.080Z,9.50
2018-03-14T15:52:52.383Z,9.93
2018-03-14T15:55:19.893Z,8.90
2018-03-14T15:57:48.205Z,9.90
2018-03-14T16:00:15.984Z,23.60
2018-03-14T16:02:43.525Z,10.60
2018-03-14T16:05:11.041Z,11.60
2018-03-14T16:07:40.089Z,11.53
2018-03-14T16:10:07.849Z,9.73
2018-03-14T16:12:35.402Z,8.57
2018-03-14T16:15:02.909Z,9.80
2018-03-14T16:17:31.548Z,9.33
2018-03-14T16:19:59.056Z,9.20
2018-03-14T16:22:27.364Z,13.57
2018-03-14T16:24:54.873Z,9.50
2018-03-14T16:27:22.424Z,10.37
2018-03-14T16:29:50.248Z,8.33
2018-03-14T16:32:17.788Z,9.43
2018-03-14T16:34:45.297Z,9.90
2018-03-14T16:37:12.870Z,10.17
2018-03-14T16:39:40.361Z,9.37
2018-03-14T16:42:07.933Z,9.47
2018-03-14T16:44:35.481Z,8.63
2018-03-14T16:47:03.044Z,9.77
2018-03-14T16:49:30.554Z,9.20
2018-03-14T16:51:58.841Z,9.27
2018-03-14T16:54:26.384Z,10.03
2018-03-14T16:56:54.656Z,10.03
2018-03-14T16:59:22.957Z,9.23
2018-03-14T17:01:50.472Z,9.07
2018-03-14T17:04:18.006Z,8.60
2018-03-14T17:06:45.522Z,9.93
2018-03-14T17:09:13.067Z,9.00
2018-03-14T17:11:40.571Z,8.70
2018-03-14T17:14:08.105Z,9.67
2018-03-14T17:16:35.612Z,10.87
2018-03-14T17:19:03.223Z,10.37
2018-03-14T17:21:30.756Z,10.23
2018-03-14T17:23:58.284Z,9.70
2018-03-14T17:26:26.609Z,9.30
2018-03-14T17:28:55.102Z,10.60
2018-03-14T17:31:22.612Z,11.50
2018-03-14T17:33:50.917Z,10.67
2018-03-14T17:36:18.430Z,11.10
2018-03-14T17:38:46.729Z,9.60
2018-03-14T17:41:15.008Z,11.70
2018-03-14T17:43:42.576Z,10.30
2018-03-14T17:46:10.098Z,10.77
2018-03-14T17:48:38.413Z,12.67
2018-03-14T17:51:05.927Z,10.80
2018-03-14T17:53:34.245Z,13.23
2018-03-14T17:56:01.809Z,12.90
2018-03-14T17:58:29.369Z,11.60
2018-03-14T18:00:56.916Z,11.80
2018-03-14T18:03:24.444Z,11.30
2018-03-14T18:05:51.961Z,9.83
2018-03-14T18:08:19.726Z,11.33
2018-03-14T18:10:47.276Z,10.47
2018-03-14T18:13:14.843Z,10.37
2018-03-14T18:15:42.357Z,10.10
2018-03-14T18:18:09.981Z,11.53
2018-03-14T18:20:38.293Z,13.20
2018-03-14T18:23:05.831Z,10.73
2018-03-14T18:25:33.385Z,14.77
2018-03-14T18:28:00.918Z,18.00
2018-03-14T18:30:29.217Z,19.27
2018-03-14T18:32:57.012Z,15.73
2018-03-14T18:35:24.521Z,15.60
2018-03-14T18:37:52.077Z,14.20
2018-03-14T18:40:19.596Z,13.47
2018-03-14T18:42:47.165Z,13.73
2018-03-14T18:45:14.672Z,15.70
2018-03-14T18:47:42.212Z,15.57
2018-03-14T18:50:09.737Z,16.93
2018-03-14T18:52:38.046Z,16.40
2018-03-14T18:55:05.616Z,15.63
2018-03-14T18:57:33.166Z,16.20
2018-03-14T19:00:00.681Z,14.30
2018-03-14T19:02:28.956Z,12.93
2018-03-14T19:04:57.642Z,13.40
2018-03-14T19:07:25.931Z,13.03
2018-03-14T19:09:53.646Z,12.30
2018-03-14T19:12:21.969Z,11.97
2018-03-14T19:14:49.540Z,11.77
2018-03-14T19:17:17.057Z,11.83
2018-03-14T19:19:45.376Z,11.50
2018-03-14T19:22:13.754Z,11.20
2018-03-14T19:24:41.629Z,12.53
2018-03-14T19:27:09.393Z,10.50
2018-03-14T19:29:37.253Z,11.87
2018-03-14T19:32:04.769Z,11.10
2018-03-14T19:34:32.325Z,11.57
2018-03-14T19:37:00.610Z,12.00
2018-03-14T19:39:28.142Z,10.60
2018-03-14T19:41:56.440Z,11.60
2018-03-14T19:44:23.992Z,11.47
2018-03-14T19:46:51.546Z,11.80
2018-03-14T19:49:19.090Z,10.73
2018-03-14T19:51:47.368Z,9.67
2018-03-14T19:54:15.676Z,11.37
2018-03-14T19:56:43.185Z,11.47
2018-03-14T19:59:10.736Z,10.70
2018-03-14T20:01:38.246Z,9.73
2018-03-14T20:04:05.813Z,9.90
2018-03-14T20:06:33.577Z,11.07
2018-03-14T20:09:01.369Z,10.40
2018-03-14T20:11:28.778Z,11.73
2018-03-14T20:13:56.317Z,10.60
2018-03-14T20:16:23.836Z,10.27
2018-03-14T20:18:51.392Z,10.30
2018-03-14T20:21:18.910Z,9.83
2018-03-14T20:23:46.449Z,10.40
2018-03-14T20:26:14.019Z,10.13
2018-03-14T20:28:41.553Z,10.50
2018-03-14T20:31:09.829Z,10.27
2018-03-14T20:33:37.368Z,11.77
2018-03-14T20:36:05.645Z,11.60
2018-03-14T20:38:33.944Z,11.80
2018-03-14T20:41:01.463Z,11.10
2018-03-14T20:43:29.772Z,11.27
2018-03-14T20:45:57.285Z,11.40
2018-03-14T20:48:24.835Z,11.20
2018-03-14T20:50:52.522Z,10.50
2018-03-14T20:53:20.861Z,10.80
2018-03-14T20:55:48.373Z,10.60
2018-03-14T20:58:15.920Z,11.87
2018-03-14T21:00:43.437Z,11.50
2018-03-14T21:03:11.740Z,9.80
2018-03-14T21:05:40.061Z,11.93
2018-03-14T21:08:07.573Z,11.13
2018-03-14T21:10:35.901Z,11.97
2018-03-14T21:13:03.418Z,11.10
2018-03-14T21:15:30.969Z,11.60
2018-03-14T21:17:58.493Z,11.80
2018-03-14T21:20:26.040Z,12.63
2018-03-14T21:22:53.554Z,13.90
2018-03-14T21:25:21.095Z,14.23
2018-03-14T21:27:48.609Z,11.90
2018-03-14T21:30:16.147Z,12.33
2018-03-14T21:32:43.963Z,14.57
2018-03-14T21:35:11.756Z,12.57
2018-03-14T21:37:40.112Z,12.70
2018-03-14T21:40:07.913Z,12.10
2018-03-14T21:42:35.572Z,11.60
2018-03-14T21:45:03.130Z,11.73
2018-03-14T21:47:30.640Z,12.93
2018-03-14T21:49:58.153Z,11.60
2018-03-14T21:52:25.697Z,10.60
2018-03-14T21:54:53.232Z,11.37
2018-03-14T21:57:20.785Z,12.37
2018-03-14T21:59:48.307Z,11.77
2018-03-14T22:02:16.613Z,11.40
2018-03-14T22:04:44.493Z,11.93
2018-03-14T22:07:12.229Z,12.37
2018-03-14T22:09:40.573Z,11.50
2018-03-14T22:12:08.905Z,11.13
2018-03-14T22:14:36.446Z,11.10
2018-03-14T22:17:04.220Z,12.10
2018-03-14T22:19:31.733Z,11.40
2018-03-14T22:22:00.048Z,10.40
2018-03-14T22:24:27.561Z,12.17
2018-03-14T22:26:55.926Z,12.20
2018-03-14T22:29:23.448Z,12.20
2018-03-14T22:31:50.992Z,10.97
2018-03-14T22:34:18.501Z,11.70
2018-03-14T22:36:46.808Z,11.27
2018-03-14T22:39:14.333Z,11.80
2018-03-14T22:41:42.612Z,12.77
2018-03-14T22:44:10.954Z,10.90
2018-03-14T22:46:38.461Z,13.07
2018-03-14T22:49:05.997Z,11.47
2018-03-14T22:51:34.277Z,11.93
2018-03-14T22:54:02.637Z,12.80
2018-03-14T22:56:30.161Z,11.70
2018-03-14T22:58:58.024Z,12.90
2018-03-14T23:01:25.541Z,11.97
2018-03-14T23:03:53.077Z,13.27
2018-03-14T23:06:21.423Z,11.40
2018-03-14T23:08:48.961Z,11.37
2018-03-14T23:11:16.717Z,10.57
2018-03-14T23:13:44.264Z,10.57
2018-03-14T23:16:11.777Z,13.00
2018-03-14T23:18:40.521Z,13.00
2018-03-14T23:21:08.032Z,11.77
2018-03-14T23:23:36.333Z,12.27
2018-03-14T23:26:03.870Z,12.50
2018-03-14T23:28:31.387Z,11.43
2018-03-14T23:30:58.925Z,12.27
2018-03-14T23:33:26.432Z,13.33
2018-03-14T23:35:55.057Z,11.10
2018-03-14T23:38:22.823Z,10.83
2018-03-14T23:40:50.398Z,12.07
2018-03-14T23:43:17.912Z,11.57
2018-03-14T23:45:45.449Z,11.67
2018-03-14T23:48:12.956Z,12.70
2018-03-14T23:50:40.497Z,12.00
2018-03-14T23:53:08.013Z,11.10
2018-03-14T23:55:35.549Z,12.40
2018-03-14T23:58:03.065Z,12.10
